Nearby METAR Reports

 

KSEE - San Diego/Santee, California, USA
Distance from station: E 4mi, 6km
Updated: 01/18/2020 9:35pm
Clear
Clear
 Wind from calm
Wind: Calm
Temperature: 48°F , 9°C
Dew Point: 45°F , 7°C
Humidity: 87%
Barometer: 30.14 inHg , 1020.7 hPa
Clouds: Clear
Visibility: 10 miles , 16 km
2020/01/19 05:35 KSEE 190535Z AUTO 00000KT 10SM CLR 09/07 A3014 RMK AO2
KMYF - San Diego/Mntgmy, California, USA
Distance from station: W 6mi, 10km
Updated: 01/18/2020 8:53pm
Clear
Clear
 Wind from calm
Wind: Calm
Temperature: 54°F , 12°C
Dew Point: 45°F , 7°C
Humidity: 72%
Barometer: 30.14 inHg , 1020.7 hPa
Clouds: Clear
Visibility: 10 miles , 16 km
2020/01/19 04:53 KMYF 190453Z 00000KT 10SM CLR 12/07 A3014 RMK AO2 SLP203 T01170067
 
KNKX - Miramar Nas/San, California, USA
Distance from station: WNW 7mi, 11km
Updated: 01/18/2020 8:55pm
Clear
Clear
 Wind from calm
Wind: Calm
Temperature: 48°F , 9°C
Dew Point: 43°F , 6°C
Humidity: 82%
Barometer: 30.13 inHg , 1020.3 hPa
Clouds: Clear
Visibility: 10 miles , 16 km
2020/01/19 04:55 KNKX 190455Z 00000KT 10SM CLR 09/06 A3013 RMK AO2 SLP200 T00940056
KSAN - San Diego, California, USA
Distance from station: WSW 11mi, 17km
Updated: 01/18/2020 9:51pm
Mostly cloudy
Mostly cloudy
 Wind from N
Wind: N 3 mph , 6 km/h
Temperature: 55°F , 13°C
Dew Point: 48°F , 9°C
Humidity: 77%
Barometer: 30.16 inHg , 1021.3 hPa
Clouds: Mostly cloudy
Visibility: 10 miles , 16 km
Cloud details: Mostly cloudy 25000 ft
2020/01/19 05:51 KSAN 190551Z 35003KT 10SM BKN250 13/09 A3016 RMK AO2 SLP213 T01280094 10200 20128 53004
 
KNZY - North Island Nas, California, USA
Distance from station: SW 13mi, 22km
Updated: 01/18/2020 8:52pm
Mostly cloudy
Mostly cloudy
 Wind from NNW
Wind: NNW 3 mph , 6 km/h
Temperature: 54°F , 12°C
Dew Point: 48°F , 9°C
Humidity: 82%
Barometer: 30.13 inHg , 1020.3 hPa
Clouds: Mostly cloudy
Visibility: 10 miles , 16 km
Cloud details: Few Clouds 20000 ft
Mostly cloudy 25000 ft
2020/01/19 04:52 KNZY 190452Z 33003KT 10SM FEW200 BKN250 12/09 A3013 RMK AO2 SLP202 T01220094 $
KRNM - Ramona, California, USA
Distance from station: NNE 16mi, 26km
Updated: 01/18/2020 8:53pm
Clear
Clear
 Wind from calm
Wind: Calm
Temperature: 41°F , 5°C
Dew Point: 28°F , -2°C
Humidity: 61%
Barometer: 30.14 inHg , 1020.7 hPa
Clouds: Clear
Visibility: 10 miles , 16 km
2020/01/19 04:53 KRNM 190453Z AUTO 00000KT 10SM CLR 05/M02 A3014 RMK AO2 SLP204 T00501022
 
KSDM - San Diego/Brown, California, USA
Distance from station: S 16mi, 26km
Updated: 01/18/2020 8:53pm
Clear
Clear
 Wind from E
Wind: E 7 mph , 11 km/h
Temperature: 52°F , 11°C
Dew Point: 43°F , 6°C
Humidity: 72%
Barometer: 30.12 inHg , 1020 hPa
Clouds: Clear
Visibility: 10 miles , 16 km
2020/01/19 04:53 KSDM 190453Z AUTO 10006KT 10SM CLR 11/06 A3012 RMK AO2 SLP200 T01060056
KNRS - Imperial Beach, California, USA
Distance from station: SSW 18mi, 29km
Updated: 01/18/2020 8:56pm
Haze, Clear
Haze, Clear
 
Barometer: 30.13 inHg , 1020.3 hPa
Summary: Haze
Clouds: Clear
Visibility: 6 miles , 10 km
2020/01/19 04:56 KNRS 190456Z AUTO 6SM HZ CLR A3013 RMK AO2 SLP204 $
 
MMTJ - Tijuana Intl Arp, Mexico
Distance from station: S 20mi, 32km
Updated: 01/18/2020 8:41pm
Few Clouds
Few Clouds
 Wind from calm
Wind: Calm
Temperature: 52°F , 11°C
Dew Point: 45°F , 7°C
Humidity: 77%
Barometer: 30.14 inHg , 1020.7 hPa
Clouds: Few Clouds
Visibility: 8 miles , 13 km
Cloud details: Few Clouds 20000 ft
2020/01/19 04:41 MMTJ 190441Z 00000KT 8SM FEW200 11/07 A3014 RMK 8/008
KCRQ - Carlsbad, California, USA
Distance from station: NW 26mi, 43km
Updated: 01/18/2020 8:53pm
Clear
Clear
 Wind from calm
Wind: Calm
Temperature: 52°F , 11°C
Dew Point: 46°F , 8°C
Humidity: 82%
Barometer: 30.12 inHg , 1020 hPa
Clouds: Clear
Visibility: 10 miles , 16 km
2020/01/19 04:53 KCRQ 190453Z 00000KT 10SM CLR 11/08 A3012 RMK AO2 SLP200 T01110078 $
 
KOKB - Oceanside, California, USA
Distance from station: NW 33mi, 54km
Updated: 01/18/2020 9:52pm
Clear
Clear
 Wind from calm
Wind: Calm
Temperature: 46°F , 8°C
Dew Point: 43°F , 6°C
Humidity: 87%
Barometer: 30.15 inHg , 1021 hPa
Clouds: Clear
Visibility: 10 miles , 16 km
2020/01/19 05:52 KOKB 190552Z AUTO 00000KT 10SM CLR 08/06 A3015 RMK AO2 SLP207 T00780056 10183 20067 53007
KCZZ - Campo, California, USA
Distance from station: ESE 35mi, 56km
Updated: 01/18/2020 9:52pm

 Wind from NNE
Wind: NNE 3 mph , 6 km/h
Temperature: 46°F , 8°C
Dew Point: 14°F , -10°C
Humidity: 27%
Barometer: 30.14 inHg , 1020.7 hPa
2020/01/19 05:52 KCZZ 190552Z AUTO 02003KT 08/M10 A3014 RMK AO1 SLP192 T00831100 10150 20083 56004 $
 
KNFG - Camp Pendleton, California, USA
Distance from station: NNW 37mi, 59km
Updated: 01/18/2020 8:55pm
Clear
Clear
 Wind from calm
Wind: Calm
Temperature: 46°F , 8°C
Dew Point: 41°F , 5°C
Humidity: 82%
Barometer: 30.13 inHg , 1020.3 hPa
Clouds: Clear
Visibility: 10 miles , 16 km
2020/01/19 04:55 KNFG 190455Z AUTO 00000KT 10SM CLR 08/05 A3013 RMK AO2 SLP204 T00780050 $
KRIV - Riverside/March, California, USA
Distance from station: N 74mi, 119km
Updated: 01/18/2020 8:58pm
Clear
Clear
 Wind from NNE
Wind: NNE 13 mph , 20 km/h
Temperature: 59°F , 15°C
Dew Point: 14°F , -10°C
Humidity: 17%
Barometer: 30.16 inHg , 1021.3 hPa
Clouds: Clear
Visibility: 10 miles , 16 km
2020/01/19 04:58 KRIV 190458Z AUTO 02011KT 10SM CLR 15/M10 A3016 RMK AO2 SLP210 T01471101
 
KTRM - Thermal/Palm Spg, California, USA
Distance from station: NE 75mi, 121km
Updated: 01/18/2020 9:52pm
Clear
Clear
 Wind from N
Wind: N 3 mph , 6 km/h
Temperature: 45°F , 7°C
Dew Point: 30°F , -1°C
Humidity: 57%
Barometer: 30.19 inHg , 1022.4 hPa
Clouds: Clear
Visibility: 10 miles , 16 km
2020/01/19 05:52 KTRM 190552Z AUTO 01003KT 10SM CLR 07/M01 A3019 RMK AO2 SLP222 T00671006
KPSP - Palm Springs, California, USA
Distance from station: NNE 76mi, 122km
Updated: 01/18/2020 8:53pm
Clear
Clear
 Wind from calm
Wind: Calm
Temperature: 57°F , 14°C
Dew Point: 23°F , -5°C
Humidity: 27%
Barometer: 30.22 inHg , 1023.4 hPa
Clouds: Clear
Visibility: 10 miles , 16 km
2020/01/19 04:53 KPSP 190453Z 00000KT 10SM CLR 14/M05 A3022 RMK AO2 SLP235 T01441050 $
 
KSNA - Costa Mesa, California, USA
Distance from station: NW 76mi, 123km
Updated: 01/18/2020 8:53pm
Partly cloudy
Partly cloudy
 Wind from calm
Wind: Calm
Temperature: 59°F , 15°C
Dew Point: 48°F , 9°C
Humidity: 68%
Barometer: 30.13 inHg , 1020.3 hPa
Clouds: Partly cloudy
Visibility: 10 miles , 16 km
Cloud details: Partly cloudy 25000 ft
2020/01/19 04:53 KSNA 190453Z 00000KT 10SM SCT250 15/09 A3013 RMK AO2 SLP203 T01500089
KNJK - El Centro Naf, California, USA
Distance from station: E 79mi, 127km
Updated: 01/18/2020 8:56pm
Clear
Clear
 Wind from W
Wind: W 8 mph , 13 km/h
Temperature: 48°F , 9°C
Wind Chill: 44°F , 7°C
Dew Point: 16°F , -9°C
Humidity: 27%
Barometer: 30.21 inHg , 1023 hPa
Clouds: Clear
Visibility: 10 miles , 16 km
2020/01/19 04:56 KNJK 190456Z AUTO 27007KT 10SM CLR 09/M09 A3021 RMK AO2 SLP244 T00941089 $
 
KAJO - Corona Muni, California, USA
Distance from station: NNW 82mi, 132km
Updated: 01/18/2020 8:56pm
Clear
Clear
 Wind from SE
Wind: SE 9 mph , 15 km/h
Temperature: 63°F , 17°C
Dew Point: 21°F , -6°C
Humidity: 20%
Barometer: 30.16 inHg , 1021.3 hPa
Clouds: Clear
Visibility: 10 miles , 16 km
2020/01/19 04:56 KAJO 190456Z AUTO 14008KT 10SM CLR 17/M06 A3016 RMK AO2 SLP210 T01671061